Time;durP1;ratioP1;P1;durP2;ratioP2;P2;SDS_P1;SDS_P2;PMS_P1;PMS_P2;Temp;Humidity;BMP_temperature;BMP_pressure;BME280_temperature;BME280_humidity;BME280_pressure;Samples;Min_cycle;Max_cycle;Signal;HPM_P1;HPM_P2
2023/05/01 00:00:04;;;;;;;4.85;2.95;;;8.70;99.90;;;;;;5026810;28;20056;-81
2023/05/01 00:02:30;;;;;;;6.05;3.22;;;8.60;99.90;;;;;;5034267;28;20041;-80
2023/05/01 00:04:56;;;;;;;3.88;3.15;;;8.50;99.90;;;;;;5027806;28;20049;-80
2023/05/01 00:07:23;;;;;;;5.05;3.30;;;8.50;99.90;;;;;;5029553;28;20049;-80
2023/05/01 00:09:50;;;;;;;5.15;3.42;;;8.50;99.90;;;;;;5028295;28;20040;-81
2023/05/01 00:12:16;;;;;;;5.45;3.47;;;8.80;99.90;;;;;;5027338;28;20399;-80
2023/05/01 00:14:41;;;;;;;3.85;3.22;;;8.40;99.90;;;;;;5022525;28;20068;-80
2023/05/01 00:17:07;;;;;;;4.88;3.08;;;8.40;99.90;;;;;;5028710;28;20083;-80
2023/05/01 00:19:33;;;;;;;5.72;3.22;;;8.40;99.90;;;;;;5013252;28;20500;-80
2023/05/01 00:21:58;;;;;;;6.20;2.90;;;8.30;99.90;;;;;;5031354;28;20053;-80
2023/05/01 00:24:24;;;;;;;6.07;4.25;;;8.30;99.90;;;;;;5049935;28;20047;-80
2023/05/01 00:26:49;;;;;;;5.80;3.28;;;8.20;99.90;;;;;;5032224;28;20052;-80
2023/05/01 00:29:16;;;;;;;4.93;3.05;;;8.20;99.90;;;;;;5032703;28;20048;-80
2023/05/01 00:31:42;;;;;;;5.53;3.05;;;8.10;99.90;;;;;;5031618;28;20057;-80
2023/05/01 00:34:08;;;;;;;8.27;3.40;;;8.10;99.90;;;;;;5014236;28;20500;-80
2023/05/01 00:36:34;;;;;;;7.65;3.70;;;8.00;99.90;;;;;;5038564;28;20049;-80
2023/05/01 00:39:00;;;;;;;5.10;3.05;;;8.00;99.90;;;;;;5041968;28;20430;-80
2023/05/01 00:41:26;;;;;;;4.82;2.92;;;8.00;99.90;;;;;;5015169;28;20053;-80
2023/05/01 00:43:52;;;;;;;5.55;3.10;;;8.00;99.90;;;;;;5032508;28;20048;-80
2023/05/01 00:46:18;;;;;;;5.75;3.25;;;7.90;99.90;;;;;;5049633;28;20552;-80
2023/05/01 00:48:44;;;;;;;6.68;3.97;;;7.90;99.90;;;;;;5031708;28;20531;-80
2023/05/01 00:51:11;;;;;;;6.18;3.50;;;7.90;99.90;;;;;;5030694;28;20072;-80
2023/05/01 00:53:40;;;;;;;5.35;3.38;;;7.80;99.90;;;;;;5047587;28;20466;-80
2023/05/01 00:56:07;;;;;;;6.15;4.05;;;8.10;99.90;;;;;;5031012;28;20519;-79
2023/05/01 00:58:33;;;;;;;7.30;3.65;;;7.70;99.90;;;;;;5048739;28;20102;-80
2023/05/01 01:00:58;;;;;;;4.38;3.60;;;7.70;99.90;;;;;;5030762;28;20037;-80
2023/05/01 01:03:24;;;;;;;6.25;3.75;;;7.70;99.90;;;;;;5028773;28;20087;-80
2023/05/01 01:06:00;;;;;;;4.95;3.63;;;7.70;99.90;;;;;;5015924;28;20041;-80
2023/05/01 01:08:31;;;;;;;6.05;3.20;;;7.60;99.90;;;;;;5049974;28;20132;-79
2023/05/01 01:11:13;;;;;;;6.80;3.55;;;7.50;99.90;;;;;;5045215;28;20537;-80
2023/05/01 01:13:46;;;;;;;5.30;3.50;;;7.50;99.90;;;;;;5049412;28;20068;-80
2023/05/01 01:16:19;;;;;;;4.45;3.63;;;7.50;99.90;;;;;;5068227;28;20136;-80
2023/05/01 01:18:56;;;;;;;4.57;3.75;;;7.40;99.90;;;;;;5050871;28;20053;-80
2023/05/01 01:21:26;;;;;;;4.88;3.30;;;7.40;99.90;;;;;;5048293;28;20045;-81
2023/05/01 01:24:03;;;;;;;5.35;4.13;;;7.40;99.90;;;;;;5031250;28;20533;-80
2023/05/01 01:26:49;;;;;;;4.55;3.95;;;7.40;99.90;;;;;;5031803;28;20055;-80
2023/05/01 01:29:44;;;;;;;8.57;4.63;;;7.30;99.90;;;;;;5031589;28;20045;-81
2023/05/01 01:32:33;;;;;;;7.22;4.60;;;7.30;99.90;;;;;;5030382;28;20045;-80
2023/05/01 01:35:16;;;;;;;6.55;4.65;;;7.30;99.90;;;;;;5048778;28;20064;-80
2023/05/01 01:37:50;;;;;;;6.78;4.95;;;7.30;99.90;;;;;;5047828;28;20045;-80
2023/05/01 01:40:21;;;;;;;8.55;4.57;;;7.30;99.90;;;;;;5029690;28;20058;-80
2023/05/01 01:42:54;;;;;;;6.05;4.90;;;7.30;99.90;;;;;;5047281;28;20441;-80
2023/05/01 01:45:41;;;;;;;8.48;5.43;;;7.30;99.90;;;;;;5012945;28;20085;-80
2023/05/01 01:48:11;;;;;;;5.72;4.72;;;7.20;99.90;;;;;;5031043;28;20067;-80
2023/05/01 01:50:38;;;;;;;7.15;4.65;;;7.30;99.90;;;;;;5011569;28;20045;-81
2023/05/01 01:53:05;;;;;;;8.20;5.50;;;7.20;99.90;;;;;;5012732;28;20056;-81
2023/05/01 01:55:33;;;;;;;7.32;5.05;;;7.20;99.90;;;;;;5029971;28;20049;-80
2023/05/01 01:58:01;;;;;;;6.00;4.93;;;7.20;99.90;;;;;;5029019;28;20057;-81
2023/05/01 02:00:31;;;;;;;6.13;5.00;;;7.20;99.90;;;;;;5046482;28;20055;-81
2023/05/01 02:03:00;;;;;;;7.22;5.18;;;7.20;99.90;;;;;;5029706;28;20559;-79
2023/05/01 02:05:26;;;;;;;8.02;5.65;;;7.20;99.90;;;;;;5047265;28;20045;-81
2023/05/01 02:07:53;;;;;;;7.18;5.47;;;7.30;99.90;;;;;;5029025;28;20053;-79
2023/05/01 02:10:21;;;;;;;6.38;5.28;;;7.20;99.90;;;;;;5029820;28;20037;-79
2023/05/01 02:12:49;;;;;;;7.72;5.93;;;7.20;99.90;;;;;;5048181;28;20175;-79
2023/05/01 02:15:17;;;;;;;8.15;5.22;;;7.20;99.90;;;;;;5047356;28;20044;-80
2023/05/01 02:17:44;;;;;;;8.57;6.90;;;7.20;99.90;;;;;;5028786;28;20529;-81
2023/05/01 02:20:14;;;;;;;7.43;5.50;;;7.20;99.90;;;;;;5047873;28;20113;-80
2023/05/01 02:22:40;;;;;;;6.65;5.15;;;7.10;99.90;;;;;;5032964;28;20082;-80
2023/05/01 02:25:09;;;;;;;10.55;5.63;;;7.10;99.90;;;;;;5021787;28;20425;-80
2023/05/01 02:27:39;;;;;;;7.80;5.53;;;7.10;99.90;;;;;;5003304;28;20037;-81
2023/05/01 02:30:06;;;;;;;8.93;5.70;;;7.10;99.90;;;;;;5012945;28;20064;-81
2023/05/01 02:32:32;;;;;;;9.40;5.75;;;7.10;99.90;;;;;;5029357;28;20127;-81
2023/05/01 02:34:58;;;;;;;7.45;5.50;;;7.10;99.90;;;;;;5046158;28;20040;-81
2023/05/01 02:37:24;;;;;;;6.88;5.38;;;7.10;99.90;;;;;;5029722;28;20052;-81
2023/05/01 02:39:50;;;;;;;7.78;5.82;;;7.70;99.90;;;;;;5009365;28;20408;-81
2023/05/01 02:42:18;;;;;;;7.97;5.10;;;7.00;99.90;;;;;;5043400;28;20041;-81
2023/05/01 02:44:50;;;;;;;8.07;5.95;;;7.20;99.90;;;;;;5029799;28;20489;-81
2023/05/01 02:47:20;;;;;;;7.60;6.10;;;6.90;99.90;;;;;;5029548;28;20060;-81
2023/05/01 02:49:47;;;;;;;7.20;5.10;;;6.90;99.90;;;;;;5029648;28;20054;-81
2023/05/01 02:52:15;;;;;;;7.20;5.10;;;6.90;99.90;;;;;;5029065;28;20079;-81
2023/05/01 02:54:44;;;;;;;8.35;5.57;;;6.90;99.90;;;;;;5029393;28;20037;-81
2023/05/01 02:57:10;;;;;;;8.93;5.35;;;6.70;99.90;;;;;;5028144;28;20132;-81
2023/05/01 02:59:36;;;;;;;7.63;5.45;;;6.80;99.90;;;;;;5028991;28;20063;-81
2023/05/01 03:02:02;;;;;;;6.85;5.82;;;6.70;99.90;;;;;;5029232;28;20040;-81
2023/05/01 03:04:28;;;;;;;7.88;5.63;;;6.70;99.90;;;;;;5046186;28;20093;-81
2023/05/01 03:06:53;;;;;;;10.20;5.78;;;6.70;99.90;;;;;;5011641;28;20038;-81
2023/05/01 03:09:20;;;;;;;7.32;5.28;;;6.60;99.90;;;;;;5036482;28;20399;-81
2023/05/01 03:11:46;;;;;;;9.82;6.00;;;6.60;99.90;;;;;;5028769;28;20043;-81
2023/05/01 03:14:12;;;;;;;10.45;5.43;;;6.50;99.90;;;;;;5029712;28;20547;-81
2023/05/01 03:16:38;;;;;;;8.20;5.78;;;6.50;99.90;;;;;;5029818;28;20052;-81
2023/05/01 03:19:04;;;;;;;8.38;5.55;;;6.50;99.90;;;;;;5046727;28;20124;-81
2023/05/01 03:21:30;;;;;;;10.38;6.15;;;6.40;99.90;;;;;;5046834;28;20083;-81
2023/05/01 03:23:56;;;;;;;9.73;5.90;;;6.40;99.90;;;;;;5029218;28;20037;-81
2023/05/01 03:26:23;;;;;;;11.43;5.85;;;6.40;99.90;;;;;;5053618;28;20090;-81
2023/05/01 03:28:48;;;;;;;8.18;5.55;;;6.40;99.90;;;;;;5047313;28;20091;-81
2023/05/01 03:31:14;;;;;;;7.85;5.45;;;7.20;99.90;;;;;;5047535;28;20077;-81
2023/05/01 03:33:40;;;;;;;9.07;5.70;;;6.40;99.90;;;;;;5046644;28;20190;-81
2023/05/01 03:36:07;;;;;;;10.20;5.55;;;6.40;99.90;;;;;;5046874;28;20575;-81
2023/05/01 03:38:33;;;;;;;8.57;5.22;;;6.40;99.90;;;;;;5045937;28;20055;-81
2023/05/01 03:40:58;;;;;;;9.77;6.45;;;6.30;99.90;;;;;;5028095;28;20132;-81
2023/05/01 03:43:24;;;;;;;10.10;6.28;;;6.30;99.90;;;;;;5029152;28;20053;-80
2023/05/01 03:45:51;;;;;;;8.27;5.90;;;6.30;99.90;;;;;;5028348;28;20068;-81
2023/05/01 03:48:18;;;;;;;7.32;5.30;;;6.40;99.90;;;;;;5047275;28;20136;-81
2023/05/01 03:50:45;;;;;;;9.30;6.00;;;6.20;99.90;;;;;;5028883;28;20049;-81
2023/05/01 03:53:12;;;;;;;9.90;5.95;;;6.20;99.90;;;;;;5024649;28;20111;-81
2023/05/01 03:55:38;;;;;;;10.52;6.15;;;6.20;99.90;;;;;;5035137;28;20502;-81
2023/05/01 03:58:04;;;;;;;9.07;5.80;;;6.20;99.90;;;;;;5014329;28;20041;-81
2023/05/01 04:00:31;;;;;;;8.23;5.72;;;5.70;99.90;;;;;;5028433;28;20072;-81
2023/05/01 04:02:57;;;;;;;6.55;5.55;;;6.10;99.90;;;;;;5019799;28;20492;-81
2023/05/01 04:05:22;;;;;;;7.53;5.32;;;6.10;99.90;;;;;;5031572;28;20037;-81
2023/05/01 04:07:48;;;;;;;8.75;6.28;;;6.10;99.90;;;;;;5050448;28;20049;-81
2023/05/01 04:10:14;;;;;;;8.73;5.72;;;6.00;99.90;;;;;;5032254;28;20057;-82
2023/05/01 04:12:39;;;;;;;9.13;6.18;;;6.00;99.90;;;;;;5031095;28;20182;-81
2023/05/01 04:15:06;;;;;;;7.32;5.53;;;6.00;99.90;;;;;;5044118;28;20120;-81
2023/05/01 04:17:32;;;;;;;7.95;6.00;;;6.00;99.90;;;;;;5031037;28;20049;-81
2023/05/01 04:19:57;;;;;;;12.20;6.53;;;6.00;99.90;;;;;;5031932;28;20046;-81
2023/05/01 04:22:23;;;;;;;9.93;6.57;;;6.00;99.90;;;;;;5032269;28;20049;-81
2023/05/01 04:24:50;;;;;;;9.13;6.18;;;6.00;99.90;;;;;;5031086;28;20047;-82
2023/05/01 04:27:16;;;;;;;8.90;6.22;;;6.00;99.90;;;;;;5033162;28;20422;-81
2023/05/01 04:29:42;;;;;;;9.20;5.93;;;6.10;99.90;;;;;;5032051;28;20049;-81
2023/05/01 04:32:07;;;;;;;8.77;6.05;;;6.10;99.90;;;;;;5031716;28;20047;-81
2023/05/01 04:34:33;;;;;;;9.65;6.28;;;6.10;99.90;;;;;;5030443;28;20120;-81
2023/05/01 04:36:58;;;;;;;8.30;6.03;;;6.20;99.90;;;;;;5032104;28;20060;-81
2023/05/01 04:39:24;;;;;;;9.82;6.78;;;6.20;99.90;;;;;;5030510;28;20057;-82
2023/05/01 04:41:50;;;;;;;8.98;6.38;;;6.30;99.90;;;;;;5031682;28;20495;-81
2023/05/01 04:44:15;;;;;;;10.43;6.78;;;6.40;99.90;;;;;;5030305;28;20049;-80
2023/05/01 04:46:41;;;;;;;12.38;6.88;;;6.50;99.90;;;;;;5032019;28;20122;-81
2023/05/01 04:49:08;;;;;;;11.00;6.53;;;6.50;99.90;;;;;;5024195;28;20075;-82
2023/05/01 04:51:34;;;;;;;9.25;6.32;;;6.60;99.90;;;;;;5022982;28;20120;-80
2023/05/01 04:53:59;;;;;;;10.65;6.53;;;6.60;99.90;;;;;;5022449;28;20128;-81
2023/05/01 04:56:25;;;;;;;13.45;6.55;;;6.70;99.90;;;;;;5028466;28;20142;-80
2023/05/01 04:58:51;;;;;;;8.85;6.43;;;6.80;99.90;;;;;;5028472;28;20128;-81
2023/05/01 05:01:17;;;;;;;10.80;6.55;;;6.80;99.90;;;;;;5031861;28;20055;-81
2023/05/01 05:03:42;;;;;;;8.60;6.25;;;7.60;99.90;;;;;;5015215;28;20487;-81
2023/05/01 05:06:08;;;;;;;11.43;6.93;;;7.00;99.90;;;;;;5030507;28;20521;-81
2023/05/01 05:08:34;;;;;;;7.90;6.30;;;7.00;99.90;;;;;;5042309;28;20049;-80
2023/05/01 05:11:00;;;;;;;11.30;6.07;;;6.60;99.90;;;;;;5038382;28;20045;-81
2023/05/01 05:13:26;;;;;;;11.57;6.70;;;7.10;99.90;;;;;;5031863;28;20044;-81
2023/05/01 05:15:52;;;;;;;11.77;6.22;;;7.20;99.90;;;;;;5014670;28;20045;-81
2023/05/01 05:18:18;;;;;;;9.10;6.35;;;7.20;99.90;;;;;;5030840;28;20105;-80
2023/05/01 05:20:44;;;;;;;7.93;6.47;;;7.30;99.90;;;;;;5030701;28;20055;-80
2023/05/01 05:23:09;;;;;;;10.15;7.35;;;7.40;99.90;;;;;;5031811;28;20507;-80
2023/05/01 05:25:35;;;;;;;9.32;6.55;;;7.50;99.90;;;;;;5041530;28;20045;-81
2023/05/01 05:28:00;;;;;;;9.75;6.55;;;7.70;99.90;;;;;;5031380;28;20554;-81
2023/05/01 05:30:26;;;;;;;10.50;6.40;;;7.80;99.90;;;;;;5016185;28;20049;-81
2023/05/01 05:32:52;;;;;;;9.32;6.95;;;7.90;99.90;;;;;;5022679;28;21934;-81
2023/05/01 05:35:18;;;;;;;10.52;6.50;;;8.00;99.90;;;;;;5039175;28;20384;-81
2023/05/01 05:37:43;;;;;;;9.02;6.45;;;8.10;99.90;;;;;;5025180;28;20216;-81
2023/05/01 05:40:10;;;;;;;10.68;6.85;;;8.10;99.90;;;;;;5018199;28;20053;-81
2023/05/01 05:42:35;;;;;;;11.15;6.50;;;8.20;99.90;;;;;;5024633;28;20138;-81
2023/05/01 05:45:01;;;;;;;7.97;6.22;;;8.30;99.90;;;;;;5023831;28;20054;-81
2023/05/01 05:47:26;;;;;;;11.93;6.38;;;8.40;99.90;;;;;;5029943;28;20506;-82
2023/05/01 05:49:54;;;;;;;8.50;6.32;;;8.60;99.90;;;;;;5030863;28;20463;-81
2023/05/01 05:52:20;;;;;;;10.02;6.32;;;9.20;99.90;;;;;;5029869;28;20060;-82
2023/05/01 05:54:46;;;;;;;10.20;6.20;;;10.00;99.90;;;;;;5030132;28;20068;-82
2023/05/01 05:57:15;;;;;;;10.80;6.15;;;10.50;99.90;;;;;;5049307;28;20058;-81
2023/05/01 05:59:40;;;;;;;7.43;5.43;;;10.90;99.90;;;;;;5047539;28;20065;-82
2023/05/01 06:02:06;;;;;;;7.82;5.55;;;11.10;99.90;;;;;;5031764;28;20529;-82
2023/05/01 06:04:32;;;;;;;10.90;5.82;;;11.20;99.90;;;;;;5025924;28;20158;-82
2023/05/01 06:06:58;;;;;;;6.78;5.40;;;11.20;99.90;;;;;;5030432;28;20056;-82
2023/05/01 06:09:23;;;;;;;8.27;5.82;;;11.80;99.90;;;;;;5029458;28;20056;-82
2023/05/01 06:11:49;;;;;;;8.45;5.32;;;11.00;99.90;;;;;;5013474;28;20037;-82
2023/05/01 06:14:15;;;;;;;11.23;5.85;;;10.80;99.90;;;;;;5030791;28;20043;-82
2023/05/01 06:16:41;;;;;;;8.98;5.45;;;10.70;99.90;;;;;;5029305;28;20640;-82
2023/05/01 06:19:09;;;;;;;8.02;5.63;;;10.70;99.90;;;;;;5030950;28;20053;-82
2023/05/01 06:21:34;;;;;;;9.05;5.20;;;10.60;99.90;;;;;;5024946;28;20081;-81
2023/05/01 06:24:00;;;;;;;7.72;5.20;;;10.60;99.90;;;;;;5030369;28;20470;-83
2023/05/01 06:26:26;;;;;;;9.88;5.53;;;11.00;99.90;;;;;;5038778;28;20514;-81
2023/05/01 06:28:53;;;;;;;6.70;4.95;;;10.70;99.90;;;;;;5029998;28;20530;-80
2023/05/01 06:31:19;;;;;;;6.97;4.75;;;10.80;99.90;;;;;;5047741;28;20488;-81
2023/05/01 06:33:44;;;;;;;6.53;4.55;;;11.00;99.90;;;;;;5029904;28;20049;-81
2023/05/01 06:36:10;;;;;;;6.28;4.68;;;11.10;99.90;;;;;;5030506;28;20048;-81
2023/05/01 06:38:36;;;;;;;8.60;5.18;;;11.20;99.90;;;;;;5025660;28;20046;-82
2023/05/01 06:41:03;;;;;;;6.47;4.20;;;11.30;99.90;;;;;;5044838;28;20068;-81
2023/05/01 06:43:29;;;;;;;6.78;4.60;;;11.40;99.90;;;;;;5029625;28;20503;-81
2023/05/01 06:45:56;;;;;;;8.48;4.57;;;11.50;99.90;;;;;;5030940;28;20195;-81
2023/05/01 06:48:22;;;;;;;8.00;4.70;;;11.60;99.90;;;;;;5012686;28;20139;-81
2023/05/01 06:50:47;;;;;;;7.95;4.40;;;11.70;99.90;;;;;;5038655;28;20182;-81
2023/05/01 06:53:13;;;;;;;6.72;4.13;;;11.80;99.90;;;;;;5026396;28;20037;-81
2023/05/01 06:55:38;;;;;;;8.57;4.65;;;11.90;99.90;;;;;;5046538;28;20087;-81
2023/05/01 06:58:07;;;;;;;7.57;4.53;;;12.00;99.90;;;;;;5058205;28;20079;-81
2023/05/01 07:00:36;;;;;;;9.60;4.63;;;12.20;99.90;;;;;;5027206;28;20099;-81
2023/05/01 07:03:02;;;;;;;6.97;4.65;;;12.20;99.90;;;;;;5013725;28;20037;-81
2023/05/01 07:05:28;;;;;;;7.88;5.38;;;12.20;99.90;;;;;;5029637;28;20614;-81
2023/05/01 07:07:54;;;;;;;7.05;4.80;;;12.30;99.90;;;;;;5029027;28;20104;-82
2023/05/01 07:10:20;;;;;;;8.13;5.28;;;12.30;99.90;;;;;;5030444;28;20045;-81
2023/05/01 07:12:47;;;;;;;9.70;5.10;;;12.40;99.90;;;;;;5030146;28;20459;-82
2023/05/01 07:15:15;;;;;;;12.05;5.80;;;12.90;99.90;;;;;;5047513;28;20077;-81
2023/05/01 07:17:41;;;;;;;7.28;4.90;;;12.50;99.90;;;;;;5045803;28;20041;-81
2023/05/01 07:20:07;;;;;;;7.75;5.28;;;12.60;99.90;;;;;;5029318;28;20134;-81
2023/05/01 07:22:33;;;;;;;6.72;4.70;;;12.70;99.90;;;;;;5029089;28;20095;-81
2023/05/01 07:25:00;;;;;;;7.90;4.70;;;12.70;99.90;;;;;;5047259;28;20073;-82
2023/05/01 07:27:27;;;;;;;7.35;4.93;;;12.80;99.90;;;;;;5029554;28;20045;-82
2023/05/01 07:29:54;;;;;;;6.90;4.85;;;12.90;99.90;;;;;;5015480;28;20068;-81
2023/05/01 07:32:20;;;;;;;8.07;4.82;;;12.90;99.90;;;;;;5033796;28;20045;-79
2023/05/01 07:34:45;;;;;;;7.15;5.07;;;12.90;99.90;;;;;;5050542;28;20456;-81
2023/05/01 07:37:11;;;;;;;9.90;5.07;;;13.00;99.90;;;;;;5033879;28;20055;-82
2023/05/01 07:39:37;;;;;;;7.20;4.88;;;13.10;99.90;;;;;;5032680;28;20063;-82
2023/05/01 07:42:02;;;;;;;5.50;4.63;;;13.20;99.90;;;;;;5034141;28;20053;-81
2023/05/01 07:44:28;;;;;;;6.28;4.28;;;13.20;99.90;;;;;;5033287;28;20826;-82
2023/05/01 07:47:01;;;;;;;9.23;4.93;;;13.30;99.90;;;;;;5052277;28;20128;-82
2023/05/01 07:49:27;;;;;;;8.05;5.28;;;13.10;99.90;;;;;;5045225;28;20534;-82
2023/05/01 07:51:54;;;;;;;13.32;5.40;;;13.40;99.90;;;;;;5034815;28;20084;-79
2023/05/01 07:54:23;;;;;;;10.27;4.78;;;13.50;99.90;;;;;;5026287;28;20061;-81
2023/05/01 07:56:49;;;;;;;5.80;4.55;;;14.00;99.90;;;;;;5030804;28;20044;-81
2023/05/01 07:59:15;;;;;;;8.18;4.43;;;13.90;99.90;;;;;;5029244;28;20152;-81
2023/05/01 08:01:41;;;;;;;8.00;5.13;;;13.50;99.90;;;;;;5020369;28;20041;-81
2023/05/01 08:04:07;;;;;;;6.75;4.57;;;13.50;99.90;;;;;;5029716;28;20047;-81
2023/05/01 08:06:32;;;;;;;6.07;4.97;;;13.60;99.90;;;;;;5049981;28;20049;-81
2023/05/01 08:08:58;;;;;;;7.72;5.45;;;13.70;99.90;;;;;;5014729;28;20167;-81
2023/05/01 08:11:25;;;;;;;8.75;4.97;;;13.70;99.90;;;;;;5049522;28;20402;-81
2023/05/01 08:13:51;;;;;;;9.05;5.15;;;13.70;99.90;;;;;;5038067;28;20041;-81
2023/05/01 08:16:18;;;;;;;6.18;4.38;;;13.90;99.90;;;;;;5032658;28;20045;-82
2023/05/01 08:18:45;;;;;;;6.18;5.03;;;14.00;99.90;;;;;;5031623;28;20051;-82
2023/05/01 08:21:10;;;;;;;6.78;4.88;;;14.20;99.90;;;;;;5032183;28;20106;-81
2023/05/01 08:23:42;;;;;;;9.35;4.97;;;14.40;99.90;;;;;;5031352;28;20049;-86
2023/05/01 08:26:08;;;;;;;7.00;4.85;;;14.50;99.90;;;;;;5048410;28;20508;-81
2023/05/01 08:28:34;;;;;;;8.50;4.70;;;14.60;99.90;;;;;;5042265;28;20084;-81
2023/05/01 08:31:02;;;;;;;7.15;4.70;;;14.70;99.90;;;;;;5040133;28;20531;-81
2023/05/01 08:33:28;;;;;;;6.95;4.32;;;14.60;99.10;;;;;;5030362;28;20041;-81
2023/05/01 08:35:53;;;;;;;7.15;4.57;;;14.80;97.90;;;;;;5030541;28;20042;-81
2023/05/01 08:38:19;;;;;;;8.80;4.55;;;14.90;96.80;;;;;;5010721;28;20092;-82
2023/05/01 08:40:52;;;;;;;8.13;4.88;;;15.00;96.30;;;;;;5028096;28;20144;-81
2023/05/01 08:43:18;;;;;;;6.72;4.43;;;15.20;95.60;;;;;;5029739;28;20068;-82
2023/05/01 08:45:46;;;;;;;5.88;4.32;;;15.20;95.30;;;;;;5029926;28;20892;-81
2023/05/01 08:48:15;;;;;;;6.10;4.30;;;15.30;95.20;;;;;;5028613;28;20046;-80
2023/05/01 08:50:45;;;;;;;6.03;4.10;;;15.40;93.90;;;;;;5029800;28;20084;-80
2023/05/01 08:53:12;;;;;;;6.97;4.40;;;15.50;93.20;;;;;;5029759;28;20054;-81
2023/05/01 08:55:39;;;;;;;7.82;4.38;;;15.60;93.20;;;;;;5029513;28;20107;-82
2023/05/01 08:58:08;;;;;;;7.85;4.45;;;15.70;91.50;;;;;;5030672;28;20123;-82
2023/05/01 09:00:35;;;;;;;6.95;4.70;;;15.90;90.90;;;;;;5033705;28;20395;-81
2023/05/01 09:03:03;;;;;;;5.95;4.85;;;16.00;91.30;;;;;;5029007;28;20068;-82
2023/05/01 09:05:32;;;;;;;5.35;4.80;;;16.20;90.60;;;;;;5035945;28;20050;-82
2023/05/01 09:07:58;;;;;;;7.50;4.75;;;16.30;90.90;;;;;;5028159;28;20107;-81
2023/05/01 09:10:25;;;;;;;6.95;4.68;;;16.50;91.30;;;;;;5027924;28;20050;-82
2023/05/01 09:12:59;;;;;;;8.73;5.18;;;16.50;90.50;;;;;;5011898;28;20767;-82
2023/05/01 09:15:26;;;;;;;6.40;4.35;;;16.70;90.60;;;;;;5008068;28;20480;-81
2023/05/01 09:17:53;;;;;;;7.70;4.30;;;16.70;90.90;;;;;;5026467;28;20663;-80
2023/05/01 09:20:19;;;;;;;7.30;4.43;;;16.80;90.40;;;;;;5028616;28;20046;-81
2023/05/01 09:22:45;;;;;;;6.55;3.88;;;16.90;90.10;;;;;;5047731;28;20153;-81
2023/05/01 09:25:11;;;;;;;5.88;4.32;;;16.90;90.40;;;;;;5031671;28;20096;-80
2023/05/01 09:27:37;;;;;;;7.55;4.65;;;17.00;89.10;;;;;;5027413;28;20045;-82
2023/05/01 09:30:05;;;;;;;9.45;4.70;;;17.00;87.70;;;;;;5010197;28;20052;-81
2023/05/01 09:32:31;;;;;;;5.22;3.85;;;17.00;88.40;;;;;;5029979;28;20510;-82
2023/05/01 09:35:13;;;;;;;6.10;4.65;;;17.10;86.80;;;;;;5028482;28;20138;-83
2023/05/01 09:37:39;;;;;;;;;;;17.10;78.70;;;;;;5026422;28;20056;-79
2023/05/01 09:40:12;;;;;;;6.15;3.05;;;17.20;80.30;;;;;;5038940;28;20334;-79
2023/05/01 09:42:38;;;;;;;5.43;2.67;;;17.30;85.40;;;;;;5046275;28;20461;-81
2023/05/01 09:45:15;;;;;;;4.18;2.30;;;17.50;80.40;;;;;;5032823;28;20088;-80
2023/05/01 09:47:42;;;;;;;3.58;2.33;;;17.50;69.30;;;;;;5029123;28;20052;-79
2023/05/01 09:50:09;;;;;;;3.97;2.70;;;17.60;71.60;;;;;;5048797;28;20041;-80
2023/05/01 09:52:34;;;;;;;4.80;1.80;;;17.70;68.80;;;;;;5046444;28;20456;-82
2023/05/01 09:55:15;;;;;;;4.97;2.65;;;18.00;67.70;;;;;;5010658;28;20099;-82
2023/05/01 09:57:41;;;;;;;5.20;2.40;;;17.80;64.80;;;;;;5029371;28;20110;-80
2023/05/01 10:00:12;;;;;;;4.68;2.58;;;17.90;66.40;;;;;;5026361;28;20060;-81
2023/05/01 10:02:40;;;;;;;4.43;2.60;;;17.90;66.20;;;;;;5029520;28;20040;-80
2023/05/01 10:05:12;;;;;;;6.88;2.38;;;18.00;66.60;;;;;;5048913;28;20045;-80
2023/05/01 10:07:57;;;;;;;4.40;2.65;;;18.10;64.50;;;;;;5030103;28;20049;-80
2023/05/01 10:10:24;;;;;;;3.60;1.95;;;18.10;64.90;;;;;;5029706;28;20144;-81
2023/05/01 10:12:50;;;;;;;3.22;2.00;;;18.20;65.10;;;;;;5023260;28;20099;-79
2023/05/01 10:15:16;;;;;;;3.50;1.90;;;18.20;65.10;;;;;;5028940;28;20052;-79
2023/05/01 10:17:43;;;;;;;3.95;2.53;;;18.20;63.70;;;;;;5050121;28;20139;-79
2023/05/01 10:20:11;;;;;;;5.13;2.40;;;18.20;63.30;;;;;;5031499;28;20048;-79
2023/05/01 10:22:37;;;;;;;4.40;2.38;;;18.10;62.80;;;;;;5045790;28;20103;-80
2023/05/01 10:25:06;;;;;;;4.20;2.25;;;18.20;63.70;;;;;;5014640;28;20045;-80
2023/05/01 10:27:33;;;;;;;4.45;2.58;;;18.30;63.40;;;;;;5029885;28;20049;-80
2023/05/01 10:30:04;;;;;;;4.13;2.65;;;18.20;63.20;;;;;;5029027;28;20047;-80
2023/05/01 10:32:31;;;;;;;5.18;2.25;;;18.30;64.10;;;;;;5048576;28;20045;-80
2023/05/01 10:35:01;;;;;;;4.35;2.33;;;18.60;64.60;;;;;;5047655;28;20495;-80
2023/05/01 10:37:34;;;;;;;4.57;2.65;;;18.40;63.80;;;;;;5013097;28;20045;-80
2023/05/01 10:40:20;;;;;;;5.47;2.50;;;18.50;63.20;;;;;;5029877;28;20092;-80
2023/05/01 10:43:14;;;;;;;3.83;2.60;;;18.60;63.50;;;;;;5047163;28;20556;-80
2023/05/01 10:45:46;;;;;;;3.20;2.20;;;18.70;59.50;;;;;;5027431;28;20490;-80
2023/05/01 10:48:32;;;;;;;3.08;1.85;;;18.70;61.70;;;;;;5046650;28;20120;-81
2023/05/01 10:51:14;;;;;;;3.00;2.10;;;18.60;62.50;;;;;;5046973;28;20045;-80
2023/05/01 10:53:41;;;;;;;1.88;1.58;;;18.60;60.00;;;;;;5028647;28;20052;-80
2023/05/01 10:56:25;;;;;;;3.42;1.77;;;18.70;61.60;;;;;;5047319;28;20491;-81
2023/05/01 10:58:57;;;;;;;3.13;1.90;;;18.90;59.70;;;;;;5047548;28;20164;-81
2023/05/01 11:01:28;;;;;;;2.38;1.90;;;18.90;59.80;;;;;;5046134;28;20053;-81
2023/05/01 11:03:55;;;;;;;4.55;1.98;;;19.10;61.30;;;;;;5047351;28;20762;-81
2023/05/01 11:06:22;;;;;;;4.18;2.22;;;19.10;62.90;;;;;;5035358;28;20103;-80
2023/05/01 11:08:47;;;;;;;5.70;2.03;;;19.00;60.90;;;;;;5039400;28;20754;-80
2023/05/01 11:11:20;;;;;;;5.88;2.00;;;19.10;62.70;;;;;;5047939;28;20084;-80
2023/05/01 11:14:01;;;;;;;3.42;1.80;;;19.10;61.70;;;;;;5047497;28;20052;-80
2023/05/01 11:16:40;;;;;;;2.58;1.70;;;19.00;59.80;;;;;;5023070;28;20057;-80
2023/05/01 11:19:11;;;;;;;3.58;1.75;;;19.00;60.00;;;;;;5026786;28;20213;-80
2023/05/01 11:21:39;;;;;;;5.40;2.15;;;19.10;60.70;;;;;;5045855;28;20059;-79
2023/05/01 11:24:05;;;;;;;3.47;1.80;;;19.20;59.40;;;;;;5046139;28;20045;-79
2023/05/01 11:26:31;;;;;;;2.33;1.42;;;19.80;60.00;;;;;;5047156;28;20410;-78
2023/05/01 11:29:00;;;;;;;2.40;1.40;;;19.20;59.30;;;;;;5043938;28;20091;-79
2023/05/01 11:31:27;;;;;;;2.25;1.60;;;19.20;58.40;;;;;;5046748;28;20535;-79
2023/05/01 11:33:57;;;;;;;3.63;1.73;;;19.10;58.60;;;;;;5046345;28;20846;-79
2023/05/01 11:36:23;;;;;;;2.45;1.35;;;19.50;58.90;;;;;;5046810;28;20124;-78
2023/05/01 11:38:59;;;;;;;3.28;1.73;;;19.20;58.50;;;;;;5046809;28;20041;-78
2023/05/01 11:41:26;;;;;;;4.38;1.73;;;19.20;57.60;;;;;;5046883;28;20467;-78
2023/05/01 11:43:57;;;;;;;3.00;1.40;;;19.20;58.30;;;;;;5047883;28;20044;-79
2023/05/01 11:46:30;;;;;;;2.77;2.00;;;19.40;59.10;;;;;;5048003;28;20045;-79
2023/05/01 11:49:01;;;;;;;2.25;1.40;;;19.60;59.20;;;;;;5047111;28;20107;-78
2023/05/01 11:51:28;;;;;;;3.05;1.48;;;19.70;57.80;;;;;;5029952;28;20049;-78
2023/05/01 11:54:01;;;;;;;3.42;1.60;;;20.00;58.10;;;;;;5027744;28;20053;-78
2023/05/01 11:56:28;;;;;;;3.15;0.98;;;20.20;57.10;;;;;;5046101;28;20095;-78
2023/05/01 11:58:58;;;;;;;1.63;1.08;;;20.40;58.00;;;;;;5046714;28;20099;-79
2023/05/01 12:01:37;;;;;;;1.65;1.05;;;20.50;58.10;;;;;;5047409;28;20465;-78
2023/05/01 12:04:04;;;;;;;2.08;1.05;;;20.60;56.00;;;;;;5047835;28;20507;-78
2023/05/01 12:06:43;;;;;;;2.28;1.30;;;20.70;56.50;;;;;;5046967;28;20045;-79
2023/05/01 12:09:24;;;;;;;1.92;1.10;;;20.60;55.30;;;;;;5026565;28;20488;-78
2023/05/01 12:11:53;;;;;;;2.67;1.20;;;20.50;54.30;;;;;;5045348;28;20037;-79
2023/05/01 12:14:20;;;;;;;4.63;1.42;;;20.50;55.30;;;;;;5045521;28;20166;-79
2023/05/01 12:16:47;;;;;;;2.08;1.10;;;20.40;55.50;;;;;;5048267;28;20048;-79
2023/05/01 12:19:16;;;;;;;2.03;1.20;;;20.40;55.40;;;;;;5031150;28;20087;-79
2023/05/01 12:21:41;;;;;;;1.63;1.20;;;20.50;55.40;;;;;;5031100;28;20140;-78
2023/05/01 12:24:11;;;;;;;1.92;1.15;;;20.50;55.10;;;;;;5049166;28;20581;-79
2023/05/01 12:26:37;;;;;;;1.58;0.93;;;20.50;54.90;;;;;;5050633;28;20053;-79
2023/05/01 12:29:05;;;;;;;1.92;1.20;;;21.10;55.50;;;;;;5032690;28;20041;-79
2023/05/01 12:31:31;;;;;;;2.72;1.30;;;20.70;53.60;;;;;;5034196;28;20139;-78
2023/05/01 12:33:59;;;;;;;1.50;1.40;;;20.50;54.00;;;;;;5052547;28;20555;-78
2023/05/01 12:36:27;;;;;;;2.13;1.20;;;20.30;53.90;;;;;;5068731;28;20047;-78
2023/05/01 12:39:06;;;;;;;2.05;1.17;;;20.30;54.30;;;;;;5062351;28;20120;-81
2023/05/01 12:41:43;;;;;;;2.45;1.15;;;20.40;53.90;;;;;;5048530;28;20057;-78
2023/05/01 12:44:21;;;;;;;2.42;1.40;;;20.30;53.10;;;;;;5016095;28;20049;-78
2023/05/01 12:46:59;;;;;;;2.30;1.20;;;20.50;52.90;;;;;;5050541;28;20453;-78
2023/05/01 12:49:27;;;;;;;2.50;1.00;;;20.40;53.80;;;;;;5046674;28;20045;-78
2023/05/01 12:51:55;;;;;;;2.65;1.00;;;20.40;53.90;;;;;;5048774;28;20053;-78
2023/05/01 12:54:28;;;;;;;1.50;1.20;;;20.50;53.80;;;;;;5047488;28;20495;-78